sensor_id;sensor_type;location;lat;lon;timestamp;temperature;humidity
44461;DHT22;30162;53.642;10.640;2022-12-11T00:01:55;2.40;85.20
44461;DHT22;30162;53.642;10.640;2022-12-11T00:04:21;2.50;84.70
44461;DHT22;30162;53.642;10.640;2022-12-11T00:06:47;2.50;84.30
44461;DHT22;30162;53.642;10.640;2022-12-11T00:09:18;2.50;84.20
44461;DHT22;30162;53.642;10.640;2022-12-11T00:11:44;2.40;84.90
44461;DHT22;30162;53.642;10.640;2022-12-11T00:14:10;2.20;84.20
44461;DHT22;30162;53.642;10.640;2022-12-11T00:16:35;2.10;85.00
44461;DHT22;30162;53.642;10.640;2022-12-11T00:19:01;2.20;85.20
44461;DHT22;30162;53.642;10.640;2022-12-11T00:21:27;2.20;86.50
44461;DHT22;30162;53.642;10.640;2022-12-11T00:23:52;2.30;85.40
44461;DHT22;30162;53.642;10.640;2022-12-11T00:26:18;2.20;84.30
44461;DHT22;30162;53.642;10.640;2022-12-11T00:28:44;2.30;85.70
44461;DHT22;30162;53.642;10.640;2022-12-11T00:31:14;2.40;83.60
44461;DHT22;30162;53.642;10.640;2022-12-11T00:33:41;2.40;85.40
44461;DHT22;30162;53.642;10.640;2022-12-11T00:36:15;2.60;84.70
44461;DHT22;30162;53.642;10.640;2022-12-11T00:38:41;2.70;83.20
44461;DHT22;30162;53.642;10.640;2022-12-11T00:41:07;2.40;83.70
44461;DHT22;30162;53.642;10.640;2022-12-11T00:43:33;2.40;85.50
44461;DHT22;30162;53.642;10.640;2022-12-11T00:45:59;2.30;84.60
44461;DHT22;30162;53.642;10.640;2022-12-11T00:48:24;2.40;84.40
44461;DHT22;30162;53.642;10.640;2022-12-11T00:50:50;2.20;85.20
44461;DHT22;30162;53.642;10.640;2022-12-11T00:53:15;2.20;84.80
44461;DHT22;30162;53.642;10.640;2022-12-11T00:55:41;2.40;84.10
44461;DHT22;30162;53.642;10.640;2022-12-11T00:58:08;2.40;84.40
44461;DHT22;30162;53.642;10.640;2022-12-11T01:00:34;2.30;84.70
44461;DHT22;30162;53.642;10.640;2022-12-11T01:03:00;2.00;82.40
44461;DHT22;30162;53.642;10.640;2022-12-11T01:05:25;2.00;83.90
44461;DHT22;30162;53.642;10.640;2022-12-11T01:07:51;2.00;83.80
44461;DHT22;30162;53.642;10.640;2022-12-11T01:10:16;2.10;84.40
44461;DHT22;30162;53.642;10.640;2022-12-11T01:12:52;2.20;83.60
44461;DHT22;30162;53.642;10.640;2022-12-11T01:15:19;2.40;84.20
44461;DHT22;30162;53.642;10.640;2022-12-11T01:17:45;2.30;82.50
44461;DHT22;30162;53.642;10.640;2022-12-11T01:20:11;2.40;82.50
44461;DHT22;30162;53.642;10.640;2022-12-11T01:22:37;2.20;82.90
44461;DHT22;30162;53.642;10.640;2022-12-11T01:25:03;2.10;82.40
44461;DHT22;30162;53.642;10.640;2022-12-11T01:27:29;1.90;83.80
44461;DHT22;30162;53.642;10.640;2022-12-11T01:29:55;2.00;83.80
44461;DHT22;30162;53.642;10.640;2022-12-11T01:32:21;2.00;83.90
44461;DHT22;30162;53.642;10.640;2022-12-11T01:34:46;2.10;83.90
44461;DHT22;30162;53.642;10.640;2022-12-11T01:37:12;2.10;83.20
44461;DHT22;30162;53.642;10.640;2022-12-11T01:39:37;2.30;83.70
44461;DHT22;30162;53.642;10.640;2022-12-11T01:42:03;2.30;82.80
44461;DHT22;30162;53.642;10.640;2022-12-11T01:46:56;2.30;82.10
44461;DHT22;30162;53.642;10.640;2022-12-11T01:49:25;2.10;82.50
44461;DHT22;30162;53.642;10.640;2022-12-11T01:54:23;2.30;82.70
44461;DHT22;30162;53.642;10.640;2022-12-11T01:56:52;2.40;82.40
44461;DHT22;30162;53.642;10.640;2022-12-11T01:59:21;2.40;81.10
44461;DHT22;30162;53.642;10.640;2022-12-11T02:02:07;2.20;82.40
44461;DHT22;30162;53.642;10.640;2022-12-11T02:04:37;2.20;81.80
44461;DHT22;30162;53.642;10.640;2022-12-11T02:07:03;2.10;82.30
44461;DHT22;30162;53.642;10.640;2022-12-11T02:09:34;2.10;82.80
44461;DHT22;30162;53.642;10.640;2022-12-11T02:12:25;2.10;81.90
44461;DHT22;30162;53.642;10.640;2022-12-11T02:17:52;1.90;84.20
44461;DHT22;30162;53.642;10.640;2022-12-11T02:25:54;1.70;83.60
44461;DHT22;30162;53.642;10.640;2022-12-11T02:28:29;1.70;84.10
44461;DHT22;30162;53.642;10.640;2022-12-11T02:33:51;1.60;85.60
44461;DHT22;30162;53.642;10.640;2022-12-11T02:36:21;1.50;85.20
44461;DHT22;30162;53.642;10.640;2022-12-11T02:38:50;1.50;85.10
44461;DHT22;30162;53.642;10.640;2022-12-11T02:41:18;1.30;85.00
44461;DHT22;30162;53.642;10.640;2022-12-11T02:43:45;1.30;85.00
44461;DHT22;30162;53.642;10.640;2022-12-11T02:46:13;1.10;84.90
44461;DHT22;30162;53.642;10.640;2022-12-11T02:48:40;1.00;85.50
44461;DHT22;30162;53.642;10.640;2022-12-11T02:51:08;0.80;85.30
44461;DHT22;30162;53.642;10.640;2022-12-11T02:53:37;0.70;85.60
44461;DHT22;30162;53.642;10.640;2022-12-11T02:56:13;0.70;85.60
44461;DHT22;30162;53.642;10.640;2022-12-11T02:58:49;0.70;85.60
44461;DHT22;30162;53.642;10.640;2022-12-11T03:01:16;0.70;86.30
44461;DHT22;30162;53.642;10.640;2022-12-11T03:03:41;0.90;86.10
44461;DHT22;30162;53.642;10.640;2022-12-11T03:06:09;1.00;85.60
44461;DHT22;30162;53.642;10.640;2022-12-11T03:08:35;1.00;85.90
44461;DHT22;30162;53.642;10.640;2022-12-11T03:11:01;1.20;85.90
44461;DHT22;30162;53.642;10.640;2022-12-11T03:13:26;1.20;85.00
44461;DHT22;30162;53.642;10.640;2022-12-11T03:16:06;1.00;85.30
44461;DHT22;30162;53.642;10.640;2022-12-11T03:21:52;0.60;85.30
44461;DHT22;30162;53.642;10.640;2022-12-11T03:24:29;0.60;86.00
44461;DHT22;30162;53.642;10.640;2022-12-11T03:27:02;0.40;85.40
44461;DHT22;30162;53.642;10.640;2022-12-11T03:29:35;0.20;86.50
44461;DHT22;30162;53.642;10.640;2022-12-11T03:34:42;0.10;86.20
44461;DHT22;30162;53.642;10.640;2022-12-11T03:37:10;0.00;86.00
44461;DHT22;30162;53.642;10.640;2022-12-11T03:39:39;-0.20;86.30
44461;DHT22;30162;53.642;10.640;2022-12-11T03:42:09;-0.20;87.50
44461;DHT22;30162;53.642;10.640;2022-12-11T03:44:36;-0.20;86.90
44461;DHT22;30162;53.642;10.640;2022-12-11T03:47:05;-0.30;87.00
44461;DHT22;30162;53.642;10.640;2022-12-11T03:52:05;-0.20;86.70
44461;DHT22;30162;53.642;10.640;2022-12-11T03:54:33;-0.30;87.10
44461;DHT22;30162;53.642;10.640;2022-12-11T03:57:00;-0.40;86.70
44461;DHT22;30162;53.642;10.640;2022-12-11T03:59:27;-0.20;87.20
44461;DHT22;30162;53.642;10.640;2022-12-11T04:01:52;0.00;86.70
44461;DHT22;30162;53.642;10.640;2022-12-11T04:04:18;0.10;86.00
44461;DHT22;30162;53.642;10.640;2022-12-11T04:06:43;0.10;85.30
44461;DHT22;30162;53.642;10.640;2022-12-11T04:09:09;-0.10;85.40
44461;DHT22;30162;53.642;10.640;2022-12-11T04:11:34;-0.20;85.90
44461;DHT22;30162;53.642;10.640;2022-12-11T04:16:45;-0.40;86.50
44461;DHT22;30162;53.642;10.640;2022-12-11T04:19:11;-0.30;86.90
44461;DHT22;30162;53.642;10.640;2022-12-11T04:21:55;-0.40;86.10
44461;DHT22;30162;53.642;10.640;2022-12-11T04:24:39;-0.60;86.90
44461;DHT22;30162;53.642;10.640;2022-12-11T04:27:05;-0.50;87.50
44461;DHT22;30162;53.642;10.640;2022-12-11T04:29:30;-0.40;86.90
44461;DHT22;30162;53.642;10.640;2022-12-11T04:31:56;-0.50;86.80
44461;DHT22;30162;53.642;10.640;2022-12-11T04:34:21;-0.40;86.70
44461;DHT22;30162;53.642;10.640;2022-12-11T04:36:47;-0.40;86.50
44461;DHT22;30162;53.642;10.640;2022-12-11T04:39:12;-0.40;86.10
44461;DHT22;30162;53.642;10.640;2022-12-11T04:41:38;-0.50;85.70
44461;DHT22;30162;53.642;10.640;2022-12-11T04:44:05;-0.60;85.80
44461;DHT22;30162;53.642;10.640;2022-12-11T04:46:30;-0.80;86.50
44461;DHT22;30162;53.642;10.640;2022-12-11T04:48:57;-1.00;86.80
44461;DHT22;30162;53.642;10.640;2022-12-11T04:51:26;-1.00;87.50
44461;DHT22;30162;53.642;10.640;2022-12-11T04:53:52;-1.00;87.60
44461;DHT22;30162;53.642;10.640;2022-12-11T04:56:17;-0.80;87.40
44461;DHT22;30162;53.642;10.640;2022-12-11T04:58:44;-1.00;87.30
44461;DHT22;30162;53.642;10.640;2022-12-11T05:01:11;-1.20;87.60
44461;DHT22;30162;53.642;10.640;2022-12-11T05:03:37;-1.30;88.30
44461;DHT22;30162;53.642;10.640;2022-12-11T05:06:03;-1.20;89.10
44461;DHT22;30162;53.642;10.640;2022-12-11T05:08:29;-1.30;88.40
44461;DHT22;30162;53.642;10.640;2022-12-11T05:10:59;-1.30;88.60
44461;DHT22;30162;53.642;10.640;2022-12-11T05:13:26;-1.30;88.80
44461;DHT22;30162;53.642;10.640;2022-12-11T05:15:52;-1.20;88.70
44461;DHT22;30162;53.642;10.640;2022-12-11T05:18:17;-1.20;88.00
44461;DHT22;30162;53.642;10.640;2022-12-11T05:20:43;-1.20;87.70
44461;DHT22;30162;53.642;10.640;2022-12-11T05:23:08;-1.30;87.50
44461;DHT22;30162;53.642;10.640;2022-12-11T05:25:34;-1.40;87.30
44461;DHT22;30162;53.642;10.640;2022-12-11T05:27:59;-1.40;87.50
44461;DHT22;30162;53.642;10.640;2022-12-11T05:30:25;-1.30;88.00
44461;DHT22;30162;53.642;10.640;2022-12-11T05:32:51;-1.30;87.10
44461;DHT22;30162;53.642;10.640;2022-12-11T05:35:16;-1.50;87.60
44461;DHT22;30162;53.642;10.640;2022-12-11T05:37:42;-1.50;87.90
44461;DHT22;30162;53.642;10.640;2022-12-11T05:40:09;-1.50;87.30
44461;DHT22;30162;53.642;10.640;2022-12-11T05:42:37;-1.60;87.30
44461;DHT22;30162;53.642;10.640;2022-12-11T05:45:02;-1.50;87.10
44461;DHT22;30162;53.642;10.640;2022-12-11T05:47:29;-1.60;86.70
44461;DHT22;30162;53.642;10.640;2022-12-11T05:49:55;-1.60;86.80
44461;DHT22;30162;53.642;10.640;2022-12-11T05:52:21;-1.60;86.90
44461;DHT22;30162;53.642;10.640;2022-12-11T05:54:48;-1.70;87.20
44461;DHT22;30162;53.642;10.640;2022-12-11T05:57:14;-1.50;87.40
44461;DHT22;30162;53.642;10.640;2022-12-11T05:59:40;-1.70;85.90
44461;DHT22;30162;53.642;10.640;2022-12-11T06:02:05;-1.90;86.70
44461;DHT22;30162;53.642;10.640;2022-12-11T06:04:31;-1.90;87.60
44461;DHT22;30162;53.642;10.640;2022-12-11T06:06:57;-1.90;87.60
44461;DHT22;30162;53.642;10.640;2022-12-11T06:09:23;-1.60;88.00
44461;DHT22;30162;53.642;10.640;2022-12-11T06:11:48;-1.40;86.20
44461;DHT22;30162;53.642;10.640;2022-12-11T06:14:13;-1.60;85.70
44461;DHT22;30162;53.642;10.640;2022-12-11T06:16:39;-1.80;86.50
44461;DHT22;30162;53.642;10.640;2022-12-11T06:19:05;-1.80;87.20
44461;DHT22;30162;53.642;10.640;2022-12-11T06:21:32;-1.80;87.10
44461;DHT22;30162;53.642;10.640;2022-12-11T06:24:01;-1.70;87.50
44461;DHT22;30162;53.642;10.640;2022-12-11T06:26:28;-1.60;87.70
44461;DHT22;30162;53.642;10.640;2022-12-11T06:28:53;-1.80;86.50
44461;DHT22;30162;53.642;10.640;2022-12-11T06:31:20;-1.80;86.50
44461;DHT22;30162;53.642;10.640;2022-12-11T06:33:46;-1.90;87.20
44461;DHT22;30162;53.642;10.640;2022-12-11T06:36:19;-1.90;87.60
44461;DHT22;30162;53.642;10.640;2022-12-11T06:38:45;-2.00;87.40
44461;DHT22;30162;53.642;10.640;2022-12-11T06:41:12;-2.00;87.20
44461;DHT22;30162;53.642;10.640;2022-12-11T06:43:40;-1.80;87.40
44461;DHT22;30162;53.642;10.640;2022-12-11T06:46:11;-1.70;87.30
44461;DHT22;30162;53.642;10.640;2022-12-11T06:48:37;-1.70;86.30
44461;DHT22;30162;53.642;10.640;2022-12-11T06:51:07;-1.70;86.60
44461;DHT22;30162;53.642;10.640;2022-12-11T06:53:34;-1.60;86.20
44461;DHT22;30162;53.642;10.640;2022-12-11T06:56:13;-1.60;86.00
44461;DHT22;30162;53.642;10.640;2022-12-11T06:58:40;-1.40;86.60
44461;DHT22;30162;53.642;10.640;2022-12-11T07:01:20;-1.20;85.70
44461;DHT22;30162;53.642;10.640;2022-12-11T07:03:46;-1.20;85.10
44461;DHT22;30162;53.642;10.640;2022-12-11T07:06:12;-1.20;84.60
44461;DHT22;30162;53.642;10.640;2022-12-11T07:08:38;-1.30;85.00
44461;DHT22;30162;53.642;10.640;2022-12-11T07:11:06;-1.50;85.40
44461;DHT22;30162;53.642;10.640;2022-12-11T07:13:32;-1.50;86.00
44461;DHT22;30162;53.642;10.640;2022-12-11T07:15:58;-1.50;86.00
44461;DHT22;30162;53.642;10.640;2022-12-11T07:18:26;-1.40;86.50
44461;DHT22;30162;53.642;10.640;2022-12-11T07:20:52;-1.30;86.40
44461;DHT22;30162;53.642;10.640;2022-12-11T07:23:17;-1.20;86.20
44461;DHT22;30162;53.642;10.640;2022-12-11T07:25:43;-1.30;85.50
44461;DHT22;30162;53.642;10.640;2022-12-11T07:28:08;-1.40;86.30
44461;DHT22;30162;53.642;10.640;2022-12-11T07:30:34;-1.20;86.20
44461;DHT22;30162;53.642;10.640;2022-12-11T07:33:02;-1.20;85.90
44461;DHT22;30162;53.642;10.640;2022-12-11T07:35:27;-1.10;85.60
44461;DHT22;30162;53.642;10.640;2022-12-11T07:37:53;-1.20;85.20
44461;DHT22;30162;53.642;10.640;2022-12-11T07:40:18;-1.30;86.00
44461;DHT22;30162;53.642;10.640;2022-12-11T07:42:44;-1.10;86.00
44461;DHT22;30162;53.642;10.640;2022-12-11T07:45:09;-0.90;85.40
44461;DHT22;30162;53.642;10.640;2022-12-11T07:47:35;-1.10;84.80
44461;DHT22;30162;53.642;10.640;2022-12-11T07:50:01;-1.00;85.70
44461;DHT22;30162;53.642;10.640;2022-12-11T07:52:26;-1.30;85.10
44461;DHT22;30162;53.642;10.640;2022-12-11T07:54:52;-1.10;86.70
44461;DHT22;30162;53.642;10.640;2022-12-11T07:57:17;-1.10;85.70
44461;DHT22;30162;53.642;10.640;2022-12-11T07:59:43;-1.30;85.60
44461;DHT22;30162;53.642;10.640;2022-12-11T08:02:09;-1.40;86.10
44461;DHT22;30162;53.642;10.640;2022-12-11T08:04:36;-1.60;85.40
44461;DHT22;30162;53.642;10.640;2022-12-11T08:07:01;-1.40;86.70
44461;DHT22;30162;53.642;10.640;2022-12-11T08:09:27;-1.40;85.80
44461;DHT22;30162;53.642;10.640;2022-12-11T08:11:52;-1.40;85.60
44461;DHT22;30162;53.642;10.640;2022-12-11T08:14:18;-1.50;85.20
44461;DHT22;30162;53.642;10.640;2022-12-11T08:16:44;-1.60;85.10
44461;DHT22;30162;53.642;10.640;2022-12-11T08:19:11;-1.90;84.10
44461;DHT22;30162;53.642;10.640;2022-12-11T08:21:37;-2.10;85.00
44461;DHT22;30162;53.642;10.640;2022-12-11T08:24:03;-2.30;85.60
44461;DHT22;30162;53.642;10.640;2022-12-11T08:26:29;-2.20;86.40
44461;DHT22;30162;53.642;10.640;2022-12-11T08:28:59;-2.20;86.20
44461;DHT22;30162;53.642;10.640;2022-12-11T08:31:26;-2.00;86.60
44461;DHT22;30162;53.642;10.640;2022-12-11T08:33:51;-1.80;86.50
44461;DHT22;30162;53.642;10.640;2022-12-11T08:36:22;-1.70;86.00
44461;DHT22;30162;53.642;10.640;2022-12-11T08:38:48;-1.60;86.80
44461;DHT22;30162;53.642;10.640;2022-12-11T08:41:16;-1.40;86.20
44461;DHT22;30162;53.642;10.640;2022-12-11T08:43:43;-1.30;85.20
44461;DHT22;30162;53.642;10.640;2022-12-11T08:46:09;-1.50;85.30
44461;DHT22;30162;53.642;10.640;2022-12-11T08:48:36;-1.60;84.90
44461;DHT22;30162;53.642;10.640;2022-12-11T08:51:05;-1.80;85.60
44461;DHT22;30162;53.642;10.640;2022-12-11T08:53:32;-1.90;86.50
44461;DHT22;30162;53.642;10.640;2022-12-11T08:56:02;-1.90;86.40
44461;DHT22;30162;53.642;10.640;2022-12-11T08:58:27;-1.70;87.40
44461;DHT22;30162;53.642;10.640;2022-12-11T09:00:54;-1.60;86.90
44461;DHT22;30162;53.642;10.640;2022-12-11T09:03:20;-1.40;87.60
44461;DHT22;30162;53.642;10.640;2022-12-11T09:05:46;-1.20;86.70
44461;DHT22;30162;53.642;10.640;2022-12-11T09:08:11;-1.10;86.40
44461;DHT22;30162;53.642;10.640;2022-12-11T09:10:37;-0.90;86.60
44461;DHT22;30162;53.642;10.640;2022-12-11T09:13:03;-0.80;86.90
44461;DHT22;30162;53.642;10.640;2022-12-11T09:15:28;-0.80;87.10
44461;DHT22;30162;53.642;10.640;2022-12-11T09:17:54;-0.70;87.50
44461;DHT22;30162;53.642;10.640;2022-12-11T09:20:19;-0.60;87.70
44461;DHT22;30162;53.642;10.640;2022-12-11T09:22:45;-0.50;87.20
44461;DHT22;30162;53.642;10.640;2022-12-11T09:25:11;-0.60;87.20
44461;DHT22;30162;53.642;10.640;2022-12-11T09:27:36;-0.60;86.90
44461;DHT22;30162;53.642;10.640;2022-12-11T09:30:02;-0.60;87.20
44461;DHT22;30162;53.642;10.640;2022-12-11T09:32:28;-0.50;87.10
44461;DHT22;30162;53.642;10.640;2022-12-11T09:34:54;-0.50;87.60
44461;DHT22;30162;53.642;10.640;2022-12-11T09:37:20;-0.30;88.20
44461;DHT22;30162;53.642;10.640;2022-12-11T09:39:45;-0.20;87.90
44461;DHT22;30162;53.642;10.640;2022-12-11T09:42:29;0.10;88.20
44461;DHT22;30162;53.642;10.640;2022-12-11T09:45:00;0.40;87.80
44461;DHT22;30162;53.642;10.640;2022-12-11T09:47:41;0.70;87.20
44461;DHT22;30162;53.642;10.640;2022-12-11T09:55:30;0.70;87.20
44461;DHT22;30162;53.642;10.640;2022-12-11T09:58:13;1.10;87.90
44461;DHT22;30162;53.642;10.640;2022-12-11T10:00:52;1.20;86.80
44461;DHT22;30162;53.642;10.640;2022-12-11T10:05:55;1.30;87.40
44461;DHT22;30162;53.642;10.640;2022-12-11T10:08:39;1.10;86.60
44461;DHT22;30162;53.642;10.640;2022-12-11T10:11:32;1.10;87.60
44461;DHT22;30162;53.642;10.640;2022-12-11T10:17:11;1.40;86.30
44461;DHT22;30162;53.642;10.640;2022-12-11T10:19:39;1.50;86.80
44461;DHT22;30162;53.642;10.640;2022-12-11T10:22:19;1.70;85.10
44461;DHT22;30162;53.642;10.640;2022-12-11T10:25:00;1.80;85.30
44461;DHT22;30162;53.642;10.640;2022-12-11T10:27:32;1.90;85.50
44461;DHT22;30162;53.642;10.640;2022-12-11T10:30:12;1.80;86.00
44461;DHT22;30162;53.642;10.640;2022-12-11T10:35:49;1.90;86.70
44461;DHT22;30162;53.642;10.640;2022-12-11T10:41:01;1.90;85.80
44461;DHT22;30162;53.642;10.640;2022-12-11T10:43:32;1.90;86.10
44461;DHT22;30162;53.642;10.640;2022-12-11T10:45:59;2.00;86.30
44461;DHT22;30162;53.642;10.640;2022-12-11T10:48:24;1.90;86.00
44461;DHT22;30162;53.642;10.640;2022-12-11T10:51:02;1.90;86.70
44461;DHT22;30162;53.642;10.640;2022-12-11T10:53:29;1.90;86.20
44461;DHT22;30162;53.642;10.640;2022-12-11T10:55:56;2.10;86.20
44461;DHT22;30162;53.642;10.640;2022-12-11T10:58:28;2.10;86.10
44461;DHT22;30162;53.642;10.640;2022-12-11T11:01:34;2.10;86.20
44461;DHT22;30162;53.642;10.640;2022-12-11T11:04:02;2.30;86.40
44461;DHT22;30162;53.642;10.640;2022-12-11T11:06:29;2.40;85.00
44461;DHT22;30162;53.642;10.640;2022-12-11T11:08:57;2.40;85.30
44461;DHT22;30162;53.642;10.640;2022-12-11T11:11:36;2.30;84.90
44461;DHT22;30162;53.642;10.640;2022-12-11T11:14:22;2.30;85.60
44461;DHT22;30162;53.642;10.640;2022-12-11T11:16:50;2.40;85.60
44461;DHT22;30162;53.642;10.640;2022-12-11T11:19:31;2.40;85.20
44461;DHT22;30162;53.642;10.640;2022-12-11T11:22:12;2.30;85.30
44461;DHT22;30162;53.642;10.640;2022-12-11T11:24:43;2.30;86.00
44461;DHT22;30162;53.642;10.640;2022-12-11T11:29:58;2.60;85.70
44461;DHT22;30162;53.642;10.640;2022-12-11T11:32:35;2.60;85.20
44461;DHT22;30162;53.642;10.640;2022-12-11T11:35:27;2.40;85.20
44461;DHT22;30162;53.642;10.640;2022-12-11T11:40:40;2.50;86.40
44461;DHT22;30162;53.642;10.640;2022-12-11T11:43:28;2.70;86.20
44461;DHT22;30162;53.642;10.640;2022-12-11T11:45:59;2.70;85.50
44461;DHT22;30162;53.642;10.640;2022-12-11T11:51:18;2.70;85.70
44461;DHT22;30162;53.642;10.640;2022-12-11T11:53:49;2.70;86.00
44461;DHT22;30162;53.642;10.640;2022-12-11T11:56:33;2.70;84.60
44461;DHT22;30162;53.642;10.640;2022-12-11T11:59:15;2.70;85.60
44461;DHT22;30162;53.642;10.640;2022-12-11T12:01:43;2.70;84.50
44461;DHT22;30162;53.642;10.640;2022-12-11T12:04:10;2.60;84.60
44461;DHT22;30162;53.642;10.640;2022-12-11T12:06:45;2.70;85.40
44461;DHT22;30162;53.642;10.640;2022-12-11T12:09:42;2.90;84.10
44461;DHT22;30162;53.642;10.640;2022-12-11T12:12:23;2.90;83.60
44461;DHT22;30162;53.642;10.640;2022-12-11T12:18:03;2.80;83.80
44461;DHT22;30162;53.642;10.640;2022-12-11T12:26:28;2.80;82.50
44461;DHT22;30162;53.642;10.640;2022-12-11T12:34:59;2.90;84.00
44461;DHT22;30162;53.642;10.640;2022-12-11T12:48:56;3.00;83.70
44461;DHT22;30162;53.642;10.640;2022-12-11T12:51:23;3.00;82.90
44461;DHT22;30162;53.642;10.640;2022-12-11T12:53:55;3.30;84.10
44461;DHT22;30162;53.642;10.640;2022-12-11T12:56:22;3.50;81.90
44461;DHT22;30162;53.642;10.640;2022-12-11T12:58:49;3.60;80.70
44461;DHT22;30162;53.642;10.640;2022-12-11T13:01:20;3.40;81.20
44461;DHT22;30162;53.642;10.640;2022-12-11T13:03:58;3.10;83.10
44461;DHT22;30162;53.642;10.640;2022-12-11T13:06:37;3.10;83.70
44461;DHT22;30162;53.642;10.640;2022-12-11T13:09:21;3.00;83.70
44461;DHT22;30162;53.642;10.640;2022-12-11T13:11:49;3.20;82.90
44461;DHT22;30162;53.642;10.640;2022-12-11T13:14:25;3.10;83.00
44461;DHT22;30162;53.642;10.640;2022-12-11T13:19:44;3.10;84.00
44461;DHT22;30162;53.642;10.640;2022-12-11T13:32:41;3.20;84.00
44461;DHT22;30162;53.642;10.640;2022-12-11T13:35:15;3.00;84.80
44461;DHT22;30162;53.642;10.640;2022-12-11T13:37:43;3.10;84.70
44461;DHT22;30162;53.642;10.640;2022-12-11T13:40:21;3.10;84.30
44461;DHT22;30162;53.642;10.640;2022-12-11T13:42:55;3.20;83.30
44461;DHT22;30162;53.642;10.640;2022-12-11T13:45:28;3.00;81.60
44461;DHT22;30162;53.642;10.640;2022-12-11T13:47:57;2.80;81.90
44461;DHT22;30162;53.642;10.640;2022-12-11T13:50:28;2.90;83.80
44461;DHT22;30162;53.642;10.640;2022-12-11T13:52:55;3.00;84.30
44461;DHT22;30162;53.642;10.640;2022-12-11T13:55:33;3.10;84.20
44461;DHT22;30162;53.642;10.640;2022-12-11T13:57:59;3.10;83.60
44461;DHT22;30162;53.642;10.640;2022-12-11T14:00:30;3.00;84.00
44461;DHT22;30162;53.642;10.640;2022-12-11T14:02:57;2.80;84.30
44461;DHT22;30162;53.642;10.640;2022-12-11T14:05:24;3.00;84.90
44461;DHT22;30162;53.642;10.640;2022-12-11T14:07:53;3.10;84.20
44461;DHT22;30162;53.642;10.640;2022-12-11T14:10:28;3.10;82.80
44461;DHT22;30162;53.642;10.640;2022-12-11T14:15:24;3.20;83.70
44461;DHT22;30162;53.642;10.640;2022-12-11T14:17:50;3.40;83.90
44461;DHT22;30162;53.642;10.640;2022-12-11T14:20:22;3.50;83.50
44461;DHT22;30162;53.642;10.640;2022-12-11T14:22:48;3.50;83.40
44461;DHT22;30162;53.642;10.640;2022-12-11T14:25:23;3.50;83.80
44461;DHT22;30162;53.642;10.640;2022-12-11T14:27:53;3.40;84.20
44461;DHT22;30162;53.642;10.640;2022-12-11T14:30:27;3.20;85.10
44461;DHT22;30162;53.642;10.640;2022-12-11T14:32:59;3.10;85.20
44461;DHT22;30162;53.642;10.640;2022-12-11T14:35:35;3.20;85.50
44461;DHT22;30162;53.642;10.640;2022-12-11T14:38:08;3.30;84.80
44461;DHT22;30162;53.642;10.640;2022-12-11T14:40:38;3.20;85.10
44461;DHT22;30162;53.642;10.640;2022-12-11T14:43:25;3.10;85.20
44461;DHT22;30162;53.642;10.640;2022-12-11T14:45:57;2.90;85.20
44461;DHT22;30162;53.642;10.640;2022-12-11T14:48:27;2.90;84.80
44461;DHT22;30162;53.642;10.640;2022-12-11T14:50:57;2.80;85.80
44461;DHT22;30162;53.642;10.640;2022-12-11T14:53:30;2.80;85.80
44461;DHT22;30162;53.642;10.640;2022-12-11T14:56:01;2.80;86.20
44461;DHT22;30162;53.642;10.640;2022-12-11T14:58:27;2.80;86.50
44461;DHT22;30162;53.642;10.640;2022-12-11T15:00:57;2.80;85.50
44461;DHT22;30162;53.642;10.640;2022-12-11T15:03:23;2.80;85.90
44461;DHT22;30162;53.642;10.640;2022-12-11T15:05:55;2.80;86.00
44461;DHT22;30162;53.642;10.640;2022-12-11T15:11:04;2.90;86.30
44461;DHT22;30162;53.642;10.640;2022-12-11T15:13:32;2.80;85.90
44461;DHT22;30162;53.642;10.640;2022-12-11T15:15:58;2.80;87.00
44461;DHT22;30162;53.642;10.640;2022-12-11T15:18:30;2.90;87.30
44461;DHT22;30162;53.642;10.640;2022-12-11T15:21:05;2.90;86.70
44461;DHT22;30162;53.642;10.640;2022-12-11T15:23:33;2.80;86.40
44461;DHT22;30162;53.642;10.640;2022-12-11T15:26:01;2.80;86.90
44461;DHT22;30162;53.642;10.640;2022-12-11T15:28:35;2.80;87.30
44461;DHT22;30162;53.642;10.640;2022-12-11T15:31:05;2.80;87.00
44461;DHT22;30162;53.642;10.640;2022-12-11T15:33:30;2.70;87.60
44461;DHT22;30162;53.642;10.640;2022-12-11T15:40:57;2.90;87.40
44461;DHT22;30162;53.642;10.640;2022-12-11T15:43:23;3.10;87.20
44461;DHT22;30162;53.642;10.640;2022-12-11T15:45:49;3.20;86.60
44461;DHT22;30162;53.642;10.640;2022-12-11T15:48:14;3.00;86.90
44461;DHT22;30162;53.642;10.640;2022-12-11T15:50:40;3.00;87.00
44461;DHT22;30162;53.642;10.640;2022-12-11T15:53:06;2.90;86.40
44461;DHT22;30162;53.642;10.640;2022-12-11T15:55:31;2.80;86.50
44461;DHT22;30162;53.642;10.640;2022-12-11T15:58:04;2.80;86.70
44461;DHT22;30162;53.642;10.640;2022-12-11T16:00:31;2.70;86.60
44461;DHT22;30162;53.642;10.640;2022-12-11T16:02:57;2.70;87.60
44461;DHT22;30162;53.642;10.640;2022-12-11T16:05:23;2.70;87.70
44461;DHT22;30162;53.642;10.640;2022-12-11T16:07:49;2.80;88.40
44461;DHT22;30162;53.642;10.640;2022-12-11T16:10:18;3.00;87.90
44461;DHT22;30162;53.642;10.640;2022-12-11T16:12:45;3.00;87.40
44461;DHT22;30162;53.642;10.640;2022-12-11T16:15:12;2.90;87.90
44461;DHT22;30162;53.642;10.640;2022-12-11T16:17:38;2.80;88.30
44461;DHT22;30162;53.642;10.640;2022-12-11T16:20:05;2.90;88.30
44461;DHT22;30162;53.642;10.640;2022-12-11T16:22:31;2.90;87.40
44461;DHT22;30162;53.642;10.640;2022-12-11T16:24:56;2.80;87.70
44461;DHT22;30162;53.642;10.640;2022-12-11T16:27:22;2.70;87.70
44461;DHT22;30162;53.642;10.640;2022-12-11T16:29:47;2.70;88.00
44461;DHT22;30162;53.642;10.640;2022-12-11T16:32:13;2.70;89.30
44461;DHT22;30162;53.642;10.640;2022-12-11T16:34:39;2.60;89.20
44461;DHT22;30162;53.642;10.640;2022-12-11T16:37:06;2.70;89.50
44461;DHT22;30162;53.642;10.640;2022-12-11T16:39:32;2.60;89.00
44461;DHT22;30162;53.642;10.640;2022-12-11T16:41:58;2.70;89.60
44461;DHT22;30162;53.642;10.640;2022-12-11T16:44:25;2.70;88.80
44461;DHT22;30162;53.642;10.640;2022-12-11T16:46:51;2.60;89.20
44461;DHT22;30162;53.642;10.640;2022-12-11T16:49:18;2.60;89.20
44461;DHT22;30162;53.642;10.640;2022-12-11T16:51:44;2.50;89.50
44461;DHT22;30162;53.642;10.640;2022-12-11T16:54:10;2.60;90.00
44461;DHT22;30162;53.642;10.640;2022-12-11T16:56:36;2.60;89.50
44461;DHT22;30162;53.642;10.640;2022-12-11T16:59:02;2.60;89.40
44461;DHT22;30162;53.642;10.640;2022-12-11T17:01:28;2.60;89.50
44461;DHT22;30162;53.642;10.640;2022-12-11T17:03:54;2.60;89.40
44461;DHT22;30162;53.642;10.640;2022-12-11T17:06:19;2.60;89.20
44461;DHT22;30162;53.642;10.640;2022-12-11T17:08:45;2.50;89.10
44461;DHT22;30162;53.642;10.640;2022-12-11T17:11:13;2.50;89.40
44461;DHT22;30162;53.642;10.640;2022-12-11T17:13:39;2.50;89.20
44461;DHT22;30162;53.642;10.640;2022-12-11T17:16:13;2.50;89.40
44461;DHT22;30162;53.642;10.640;2022-12-11T17:18:39;2.50;89.90